Friday, June 23, 2017, 5:56 AM MDT
Back to Local

KSLC, Salt Lake City International Airport

Location: Salt Lake City, UT, United States Lat: 40.783
Local Time: 5:56 AM MDT (11:56 GMT) Lon: -111.967
Time Zone: US/Mountain Elev: 4225 ft

Show me the last for .
Show Decoded

2017-06-23 04:54 METAR KSLC 231054Z AUTO 28004KT 10SM CLR 17/04 A3010 RMK AO2 SLP140 T01720039
                 TSNO =
2017-06-23 03:54 METAR KSLC 230954Z AUTO 36004KT 10SM CLR 18/03 A3009 RMK AO2 SLP137 T01780028
                 TSNO =
2017-06-23 02:54 METAR KSLC 230854Z AUTO 25006KT 10SM CLR 17/05 A3008 RMK AO2 SLP134 T01720050
                 53007 TSNO =
2017-06-23 01:54 METAR KSLC 230754Z AUTO 35003KT 10SM CLR 19/07 A3007 RMK AO2 SLP128 T01940067
                 TSNO =
2017-06-23 00:54 METAR KSLC 230654Z AUTO 33011KT 10SM CLR 22/06 A3007 RMK AO2 SLP124 T02220056
                 403110194 TSNO =
2017-06-22 23:54 METAR KSLC 230554Z 31006KT 10SM CLR 22/09 A3006 RMK AO2 SLP123 T02220089 10306
                 20217 53016 =
2017-06-22 22:54 METAR KSLC 230454Z 19003KT 10SM CLR 24/03 A3004 RMK AO2 SLP114 T02390028 =
2017-06-22 21:54 METAR KSLC 230354Z 01003KT 10SM CLR 26/05 A3002 RMK AO2 SLP108 T02560050 =
2017-06-22 20:54 METAR KSLC 230254Z 36006KT 10SM CLR 27/03 A3001 RMK AO2 SLP105 T02670028 52003 =
2017-06-22 19:54 METAR KSLC 230154Z 32007KT 10SM CLR 29/M01 A3000 RMK AO2 SLP102 T02941006 =
2017-06-22 18:54 METAR KSLC 230054Z 34011KT 10SM CLR 29/M01 A3000 RMK AO2 SLP100 T02941006 =
2017-06-22 17:54 METAR KSLC 222354Z 29011KT 10SM CLR 30/M02 A2999 RMK AO2 SLP101 T03001022 10311
                 20272 56010 =
2017-06-22 16:54 METAR KSLC 222254Z 30012KT 10SM CLR 31/M06 A3000 RMK AO2 SLP102 T03061056 =
2017-06-22 15:54 METAR KSLC 222154Z 33010KT 10SM CLR 29/01 A3001 RMK AO2 SLP106 T02940006 =
2017-06-22 14:54 METAR KSLC 222054Z 34010KT 10SM FEW160 29/02 A3003 RMK AO2 SLP108 T02940017
                 58008 =
2017-06-22 13:54 METAR KSLC 221954Z VRB06KT 10SM FEW160 29/00 A3004 RMK AO2 SLP112 T02890000 =
2017-06-22 12:54 METAR KSLC 221854Z 35012G17KT 10SM CLR 28/01 A3005 RMK AO2 SLP114 T02830006 =
2017-06-22 11:54 METAR KSLC 221754Z 33012G15KT 10SM CLR 27/02 A3005 RMK AO2 SLP114 T02720022
                 10278 20194 51004 =
2017-06-22 10:54 METAR KSLC 221654Z 35014G17KT 10SM FEW230 27/02 A3005 RMK AO2 SLP114 T02670022 =
2017-06-22 09:54 METAR KSLC 221554Z 34010KT 10SM FEW230 25/03 A3005 RMK AO2 SLP113 T02500033 =
2017-06-22 08:54 METAR KSLC 221454Z 33007KT 10SM SCT230 23/04 A3004 RMK AO2 SLP109 T02330039
                 53015 =
2017-06-22 07:54 METAR KSLC 221354Z 33006KT 10SM SCT230 21/08 A3002 RMK AO2 SLP104 T02110083 =
2017-06-22 06:54 METAR KSLC 221254Z 35004KT 10SM FEW140 FEW200 21/04 A3000 RMK AO2 SLP095
                 T02110044 =

Support USWX by starting your Amazon purchase here.